createdAt,value
2023-01-28T00:01:50.486Z,2.00
2023-01-28T00:04:18.392Z,2.20
2023-01-28T00:06:46.263Z,2.40
2023-01-28T00:09:14.352Z,2.78
2023-01-28T00:11:42.534Z,2.25
2023-01-28T00:14:12.437Z,2.00
2023-01-28T00:16:40.463Z,2.00
2023-01-28T00:19:08.327Z,2.13
2023-01-28T00:21:36.155Z,2.30
2023-01-28T00:24:04.247Z,1.70
2023-01-28T00:26:32.397Z,2.17
2023-01-28T00:29:00.323Z,2.00
2023-01-28T00:31:28.615Z,2.30
2023-01-28T00:33:57.310Z,2.87
2023-01-28T00:36:26.876Z,2.22
2023-01-28T00:38:57.550Z,2.20
2023-01-28T00:41:28.717Z,1.90
2023-01-28T00:43:59.403Z,2.00
2023-01-28T00:46:28.014Z,2.10
2023-01-28T00:48:56.081Z,2.00
2023-01-28T00:51:24.059Z,2.25
2023-01-28T00:53:52.878Z,2.40
2023-01-28T00:56:21.151Z,2.00
2023-01-28T00:58:49.040Z,2.60
2023-01-28T01:01:24.629Z,1.90
2023-01-28T01:04:03.291Z,2.33
2023-01-28T01:06:40.473Z,2.17
2023-01-28T01:09:11.823Z,2.20
2023-01-28T01:11:41.927Z,1.98
2023-01-28T01:14:11.259Z,3.03
2023-01-28T01:16:41.454Z,2.42
2023-01-28T01:19:09.586Z,2.50
2023-01-28T01:21:37.446Z,3.00
2023-01-28T01:24:05.542Z,2.20
2023-01-28T01:26:33.410Z,3.30
2023-01-28T01:29:01.289Z,2.80
2023-01-28T01:31:29.218Z,2.60
2023-01-28T01:33:57.083Z,1.85
2023-01-28T01:36:27.312Z,2.30
2023-01-28T01:38:55.767Z,2.10
2023-01-28T01:41:33.288Z,2.67
2023-01-28T01:44:04.027Z,2.47
2023-01-28T01:46:41.941Z,2.20
2023-01-28T01:49:27.599Z,2.47
2023-01-28T01:52:03.760Z,2.42
2023-01-28T01:54:32.862Z,2.50
2023-01-28T01:57:03.105Z,1.92
2023-01-28T01:59:33.718Z,3.00
2023-01-28T02:02:05.320Z,1.98
2023-01-28T02:04:44.626Z,2.63
2023-01-28T02:07:18.627Z,2.33
2023-01-28T02:09:46.640Z,2.37
2023-01-28T02:12:29.783Z,2.30
2023-01-28T02:15:05.441Z,3.27
2023-01-28T02:17:33.609Z,2.10
2023-01-28T02:20:13.608Z,2.23
2023-01-28T02:23:11.592Z,2.40
2023-01-28T02:26:23.971Z,3.53
2023-01-28T02:29:27.557Z,2.83
2023-01-28T02:32:25.417Z,2.20
2023-01-28T02:35:03.347Z,2.33
2023-01-28T02:37:55.768Z,2.47
2023-01-28T02:40:30.941Z,2.57
2023-01-28T02:42:59.341Z,2.20
2023-01-28T02:45:51.398Z,2.40
2023-01-28T02:48:23.124Z,2.70
2023-01-28T02:51:10.515Z,2.40
2023-01-28T02:53:47.701Z,2.53
2023-01-28T02:56:29.296Z,2.83
2023-01-28T02:59:33.938Z,2.23
2023-01-28T03:02:20.275Z,2.40
2023-01-28T03:05:31.573Z,2.90
2023-01-28T03:08:00.099Z,2.50
2023-01-28T03:10:29.123Z,2.70
2023-01-28T03:13:17.677Z,2.47
2023-01-28T03:16:07.750Z,3.20
2023-01-28T03:19:08.879Z,2.43
2023-01-28T03:22:01.988Z,2.80
2023-01-28T03:25:04.098Z,2.67
2023-01-28T03:27:56.810Z,2.50
2023-01-28T03:30:59.464Z,2.50
2023-01-28T03:33:56.724Z,2.70
2023-01-28T03:36:43.625Z,2.80
2023-01-28T03:39:30.762Z,3.50
2023-01-28T03:42:14.065Z,3.47
2023-01-28T03:44:57.225Z,3.50
2023-01-28T03:47:30.902Z,3.03
2023-01-28T03:50:00.283Z,2.33
2023-01-28T03:52:32.421Z,3.10
2023-01-28T03:55:38.972Z,3.70
2023-01-28T03:58:07.082Z,3.63
2023-01-28T04:00:41.951Z,3.03
2023-01-28T04:03:17.890Z,2.90
2023-01-28T04:05:59.697Z,2.53
2023-01-28T04:08:33.494Z,2.17
2023-01-28T04:11:21.794Z,3.27
2023-01-28T04:13:49.925Z,2.73
2023-01-28T04:16:20.404Z,3.43
2023-01-28T04:18:48.750Z,2.97
2023-01-28T04:21:17.710Z,2.57
2023-01-28T04:23:45.757Z,2.83
2023-01-28T04:26:15.548Z,2.30
2023-01-28T04:28:43.794Z,2.80
2023-01-28T04:31:11.776Z,3.33
2023-01-28T04:34:00.248Z,3.20
2023-01-28T04:36:39.922Z,3.80
2023-01-28T04:39:23.451Z,3.23
2023-01-28T04:42:10.199Z,3.00
2023-01-28T04:44:56.415Z,3.50
2023-01-28T04:47:53.412Z,2.50
2023-01-28T04:50:45.869Z,3.30
2023-01-28T04:53:24.344Z,2.93
2023-01-28T04:55:58.048Z,3.00
2023-01-28T04:58:27.496Z,3.00
2023-01-28T05:01:01.132Z,2.60
2023-01-28T05:03:29.351Z,3.33
2023-01-28T05:05:57.377Z,3.70
2023-01-28T05:08:36.097Z,3.13
2023-01-28T05:11:04.292Z,3.77
2023-01-28T05:13:32.162Z,3.10
2023-01-28T05:16:00.660Z,3.17
2023-01-28T05:18:28.614Z,3.07
2023-01-28T05:21:06.624Z,3.13
2023-01-28T05:23:37.024Z,2.67
2023-01-28T05:26:05.140Z,2.60
2023-01-28T05:28:34.163Z,3.23
2023-01-28T05:31:07.196Z,3.30
2023-01-28T05:33:35.318Z,3.00
2023-01-28T05:36:05.772Z,2.90
2023-01-28T05:38:33.742Z,2.60
2023-01-28T05:41:01.607Z,2.70
2023-01-28T05:43:29.942Z,2.57
2023-01-28T05:46:25.310Z,3.17
2023-01-28T05:49:08.204Z,2.50
2023-01-28T05:51:39.422Z,3.20
2023-01-28T05:54:09.033Z,2.47
2023-01-28T05:56:36.915Z,3.30
2023-01-28T05:59:05.582Z,3.20
2023-01-28T06:01:34.839Z,2.97
2023-01-28T06:04:02.976Z,2.53
2023-01-28T06:06:33.419Z,2.93
2023-01-28T06:09:03.821Z,2.07
2023-01-28T06:11:33.639Z,2.87
2023-01-28T06:14:05.585Z,3.13
2023-01-28T06:16:48.896Z,2.97
2023-01-28T06:19:22.852Z,2.70
2023-01-28T06:22:05.848Z,3.07
2023-01-28T06:24:34.491Z,3.10
2023-01-28T06:27:02.464Z,2.63
2023-01-28T06:29:30.648Z,3.27
2023-01-28T06:31:58.687Z,3.00
2023-01-28T06:34:26.512Z,2.87
2023-01-28T06:36:54.383Z,3.03
2023-01-28T06:39:22.760Z,3.00
2023-01-28T06:41:50.876Z,3.00
2023-01-28T06:44:18.759Z,2.87
2023-01-28T06:46:46.616Z,3.17
2023-01-28T06:49:14.405Z,3.20
2023-01-28T06:51:42.509Z,2.73
2023-01-28T06:54:10.300Z,2.80
2023-01-28T06:56:38.160Z,3.43
2023-01-28T06:59:06.278Z,2.77
2023-01-28T07:01:34.303Z,3.03
2023-01-28T07:04:02.247Z,2.57
2023-01-28T07:06:30.129Z,2.90
2023-01-28T07:08:57.953Z,3.10
2023-01-28T07:11:25.896Z,2.87
2023-01-28T07:13:53.841Z,2.20
2023-01-28T07:16:21.913Z,2.80
2023-01-28T07:18:50.735Z,3.00
2023-01-28T07:21:18.612Z,3.20
2023-01-28T07:23:46.497Z,2.83
2023-01-28T07:26:15.480Z,3.57
2023-01-28T07:28:47.390Z,2.97
2023-01-28T07:31:15.338Z,3.27
2023-01-28T07:33:43.439Z,2.50
2023-01-28T07:36:11.211Z,2.53
2023-01-28T07:38:39.006Z,2.67
2023-01-28T07:41:07.939Z,3.33
2023-01-28T07:43:36.161Z,3.83
2023-01-28T07:46:04.399Z,2.80
2023-01-28T07:48:32.396Z,2.80
2023-01-28T07:51:00.650Z,4.10
2023-01-28T07:53:28.520Z,3.63
2023-01-28T07:56:01.270Z,3.17
2023-01-28T07:58:29.441Z,2.50
2023-01-28T08:01:00.661Z,2.60
2023-01-28T08:03:28.875Z,2.60
2023-01-28T08:05:57.917Z,3.10
2023-01-28T08:08:27.279Z,2.80
2023-01-28T08:10:55.249Z,3.20
2023-01-28T08:13:23.211Z,3.43
2023-01-28T08:15:56.446Z,4.30
2023-01-28T08:18:24.460Z,3.60
2023-01-28T08:20:56.897Z,3.03
2023-01-28T08:23:26.937Z,3.60
2023-01-28T08:25:55.128Z,3.43
2023-01-28T08:28:23.259Z,4.00
2023-01-28T08:30:51.502Z,3.07
2023-01-28T08:33:20.123Z,3.83
2023-01-28T08:35:48.261Z,4.27
2023-01-28T08:38:20.293Z,4.80
2023-01-28T08:40:50.463Z,3.57
2023-01-28T08:43:18.429Z,3.63
2023-01-28T08:45:46.260Z,3.80
2023-01-28T08:48:17.489Z,4.33
2023-01-28T08:50:46.255Z,4.28
2023-01-28T08:53:20.156Z,4.40
2023-01-28T08:55:48.432Z,5.10
2023-01-28T08:58:18.515Z,5.43
2023-01-28T09:00:47.440Z,6.43
2023-01-28T09:03:15.532Z,5.43
2023-01-28T09:05:43.598Z,6.43
2023-01-28T09:08:15.090Z,6.53
2023-01-28T09:10:43.114Z,5.65
2023-01-28T09:13:14.859Z,5.90
2023-01-28T09:15:43.557Z,7.37
2023-01-28T09:18:11.609Z,7.70
2023-01-28T09:20:39.661Z,6.33
2023-01-28T09:23:07.706Z,6.90
2023-01-28T09:25:38.310Z,6.23
2023-01-28T09:28:06.746Z,7.72
2023-01-28T09:30:37.055Z,6.70
2023-01-28T09:33:06.026Z,7.88
2023-01-28T09:35:34.707Z,7.60
2023-01-28T09:38:02.723Z,7.67
2023-01-28T09:40:37.556Z,7.43
2023-01-28T09:44:05.340Z,7.97
2023-01-28T09:46:37.385Z,7.63
2023-01-28T09:49:28.677Z,7.17
2023-01-28T09:51:56.945Z,7.85
2023-01-28T09:54:42.537Z,8.33
2023-01-28T09:57:27.133Z,8.70
2023-01-28T09:59:55.086Z,8.40
2023-01-28T10:02:28.937Z,7.37
2023-01-28T10:05:03.681Z,5.83
2023-01-28T10:07:49.979Z,8.47
2023-01-28T10:10:33.276Z,7.37
2023-01-28T10:13:12.093Z,7.18
2023-01-28T10:15:53.748Z,8.75
2023-01-28T10:18:35.415Z,7.30
2023-01-28T10:21:35.073Z,19.87
2023-01-28T10:24:18.796Z,6.38
2023-01-28T10:26:46.831Z,7.63
2023-01-28T10:29:16.692Z,10.02
2023-01-28T10:31:59.903Z,7.97
2023-01-28T10:34:27.898Z,7.50
2023-01-28T10:36:56.956Z,8.32
2023-01-28T10:39:26.133Z,8.55
2023-01-28T10:41:58.714Z,9.10
2023-01-28T10:44:35.099Z,8.20
2023-01-28T10:47:10.585Z,7.45
2023-01-28T10:49:45.669Z,7.95
2023-01-28T10:52:17.044Z,8.25
2023-01-28T10:54:45.161Z,7.93
2023-01-28T10:57:18.703Z,8.98
2023-01-28T10:59:46.592Z,8.63
2023-01-28T11:02:36.862Z,8.77
2023-01-28T11:05:30.390Z,8.23
2023-01-28T11:08:16.712Z,6.82
2023-01-28T11:10:45.553Z,9.27
2023-01-28T11:13:30.472Z,7.93
2023-01-28T11:16:04.143Z,8.30
2023-01-28T11:18:41.090Z,8.43
2023-01-28T11:21:20.090Z,7.60
2023-01-28T11:24:22.140Z,7.57
2023-01-28T11:26:53.372Z,7.70
2023-01-28T11:29:34.473Z,8.32
2023-01-28T11:34:34.692Z,9.25
2023-01-28T11:37:05.797Z,9.05
2023-01-28T11:39:33.752Z,7.53
2023-01-28T11:42:13.268Z,16.85
2023-01-28T11:44:41.347Z,9.43
2023-01-28T11:47:19.051Z,8.32
2023-01-28T11:49:53.217Z,7.78
2023-01-28T11:53:11.584Z,7.00
2023-01-28T11:56:23.912Z,8.00
2023-01-28T11:59:02.182Z,8.57
2023-01-28T12:01:36.148Z,7.45
2023-01-28T12:04:22.183Z,6.53
2023-01-28T12:07:08.815Z,6.82
2023-01-28T12:10:13.265Z,7.03
2023-01-28T12:13:41.220Z,6.82
2023-01-28T12:16:30.709Z,7.85
2023-01-28T12:19:13.117Z,18.02
2023-01-28T12:22:15.167Z,7.55
2023-01-28T12:24:57.408Z,7.45
2023-01-28T12:27:37.725Z,7.20
2023-01-28T12:30:50.656Z,31.05
2023-01-28T12:33:52.166Z,6.78
2023-01-28T12:36:26.189Z,7.32
2023-01-28T12:39:51.825Z,6.57
2023-01-28T12:42:35.740Z,7.20
2023-01-28T12:45:16.356Z,7.60
2023-01-28T12:47:50.133Z,7.93
2023-01-28T12:50:27.855Z,7.43
2023-01-28T12:53:19.480Z,7.68
2023-01-28T12:59:03.476Z,6.32
2023-01-28T13:01:50.016Z,6.15
2023-01-28T13:05:02.528Z,6.20
2023-01-28T13:07:39.639Z,6.55
2023-01-28T13:10:25.600Z,5.72
2023-01-28T13:12:54.388Z,5.60
2023-01-28T13:15:23.478Z,6.78
2023-01-28T13:18:05.158Z,6.43
2023-01-28T13:20:54.108Z,6.07
2023-01-28T13:23:26.582Z,5.70
2023-01-28T13:25:55.655Z,5.88
2023-01-28T13:28:32.721Z,6.80
2023-01-28T13:31:07.638Z,6.25
2023-01-28T13:33:40.571Z,4.97
2023-01-28T13:36:29.312Z,5.40
2023-01-28T13:39:18.246Z,5.82
2023-01-28T13:41:52.037Z,6.50
2023-01-28T13:44:25.844Z,5.60
2023-01-28T13:46:58.653Z,7.80
2023-01-28T13:49:38.257Z,5.28
2023-01-28T13:52:28.931Z,8.43
2023-01-28T13:55:25.921Z,7.33
2023-01-28T13:58:20.394Z,8.85
2023-01-28T14:01:06.436Z,7.05
2023-01-28T14:04:07.847Z,5.30
2023-01-28T14:06:38.986Z,6.68
2023-01-28T14:09:38.900Z,6.32
2023-01-28T14:12:25.952Z,5.90
2023-01-28T14:15:12.439Z,6.72
2023-01-28T14:17:55.278Z,8.57
2023-01-28T14:20:43.862Z,6.30
2023-01-28T14:23:22.110Z,5.88
2023-01-28T14:26:25.077Z,5.38
2023-01-28T14:29:21.640Z,5.95
2023-01-28T14:31:49.985Z,5.65
2023-01-28T14:34:35.761Z,6.25
2023-01-28T14:37:18.760Z,6.70
2023-01-28T14:39:48.307Z,6.63
2023-01-28T14:42:36.907Z,6.18
2023-01-28T14:45:42.883Z,5.95
2023-01-28T14:48:58.802Z,5.28
2023-01-28T14:51:47.989Z,5.95
2023-01-28T14:54:54.140Z,6.20
2023-01-28T14:57:36.052Z,5.55
2023-01-28T15:00:15.326Z,5.88
2023-01-28T15:02:44.879Z,4.88
2023-01-28T15:05:23.640Z,6.50
2023-01-28T15:07:52.233Z,4.80
2023-01-28T15:10:40.043Z,5.53
2023-01-28T15:13:26.777Z,4.47
2023-01-28T15:15:58.141Z,5.97
2023-01-28T15:20:59.975Z,5.32
2023-01-28T15:23:33.592Z,5.53
2023-01-28T15:26:26.194Z,5.90
2023-01-28T15:28:55.193Z,5.55
2023-01-28T15:31:32.810Z,5.07
2023-01-28T15:34:13.328Z,5.03
2023-01-28T15:36:43.808Z,4.18
2023-01-28T15:39:21.215Z,4.40
2023-01-28T15:42:18.552Z,5.15
2023-01-28T15:44:48.042Z,5.70
2023-01-28T15:47:33.568Z,5.72
2023-01-28T15:50:05.988Z,5.78
2023-01-28T15:52:37.174Z,6.28
2023-01-28T15:55:06.745Z,6.72
2023-01-28T15:57:35.689Z,4.55
2023-01-28T16:00:06.557Z,5.90
2023-01-28T16:02:48.213Z,6.32
2023-01-28T16:05:25.203Z,5.43
2023-01-28T16:07:53.560Z,6.65
2023-01-28T16:10:24.980Z,5.60
2023-01-28T16:15:22.878Z,5.63
2023-01-28T16:17:54.124Z,4.53
2023-01-28T16:20:27.577Z,5.93
2023-01-28T16:22:58.769Z,6.18
2023-01-28T16:25:31.505Z,4.60
2023-01-28T16:28:00.643Z,7.13
2023-01-28T16:30:30.251Z,5.80
2023-01-28T16:32:58.438Z,5.28
2023-01-28T16:35:42.641Z,6.88
2023-01-28T16:38:18.038Z,6.07
2023-01-28T16:40:47.002Z,7.38
2023-01-28T16:43:16.783Z,6.87
2023-01-28T16:45:46.038Z,5.97
2023-01-28T16:48:14.232Z,5.97
2023-01-28T16:50:43.147Z,6.40
2023-01-28T16:53:32.360Z,5.60
2023-01-28T16:56:01.189Z,5.50
2023-01-28T16:58:29.588Z,5.63
2023-01-28T17:00:57.886Z,5.88
2023-01-28T17:03:25.945Z,6.73
2023-01-28T17:05:53.843Z,6.82
2023-01-28T17:08:21.653Z,5.93
2023-01-28T17:10:56.379Z,5.37
2023-01-28T17:13:24.222Z,7.53
2023-01-28T17:15:52.690Z,6.23
2023-01-28T17:18:20.507Z,6.57
2023-01-28T17:20:48.311Z,4.90
2023-01-28T17:23:17.340Z,5.93
2023-01-28T17:25:45.265Z,5.53
2023-01-28T17:28:13.035Z,6.33
2023-01-28T17:30:41.778Z,10.77
2023-01-28T17:33:10.112Z,8.77
2023-01-28T17:35:37.941Z,10.17
2023-01-28T17:38:06.947Z,12.27
2023-01-28T17:40:34.887Z,18.00
2023-01-28T17:43:02.737Z,16.40
2023-01-28T17:45:31.881Z,22.30
2023-01-28T17:48:00.000Z,11.03
2023-01-28T17:50:28.065Z,6.73
2023-01-28T17:52:56.745Z,8.00
2023-01-28T17:55:25.713Z,7.17
2023-01-28T17:57:53.714Z,5.23
2023-01-28T18:00:22.415Z,5.73
2023-01-28T18:02:51.147Z,6.43
2023-01-28T18:05:19.683Z,7.40
2023-01-28T18:07:48.589Z,5.60
2023-01-28T18:10:17.571Z,5.57
2023-01-28T18:12:45.456Z,6.70
2023-01-28T18:15:13.805Z,5.37
2023-01-28T18:17:41.889Z,6.07
2023-01-28T18:20:10.714Z,7.87
2023-01-28T18:22:38.610Z,7.13
2023-01-28T18:25:07.328Z,7.50
2023-01-28T18:27:35.185Z,6.17
2023-01-28T18:30:03.175Z,7.47
2023-01-28T18:32:31.062Z,7.00
2023-01-28T18:34:58.891Z,6.93
2023-01-28T18:37:26.747Z,7.37
2023-01-28T18:39:54.569Z,5.97
2023-01-28T18:42:22.383Z,8.17
2023-01-28T18:44:50.372Z,7.80
2023-01-28T18:47:18.257Z,8.57
2023-01-28T18:49:46.135Z,7.27
2023-01-28T18:52:13.947Z,7.30
2023-01-28T18:54:42.026Z,6.80
2023-01-28T18:57:10.000Z,6.43
2023-01-28T18:59:37.866Z,6.37
2023-01-28T19:02:06.155Z,7.30
2023-01-28T19:04:34.008Z,7.67
2023-01-28T19:07:01.898Z,5.77
2023-01-28T19:09:29.738Z,6.80
2023-01-28T19:11:57.569Z,5.40
2023-01-28T19:14:25.412Z,6.63
2023-01-28T19:16:53.380Z,5.97
2023-01-28T19:19:21.721Z,6.93
2023-01-28T19:21:49.653Z,7.17
2023-01-28T19:24:17.588Z,5.40
2023-01-28T19:26:45.428Z,5.57
2023-01-28T19:29:15.829Z,5.67
2023-01-28T19:31:44.570Z,6.60
2023-01-28T19:34:13.040Z,5.60
2023-01-28T19:36:42.242Z,7.70
2023-01-28T19:39:10.877Z,5.00
2023-01-28T19:41:38.821Z,5.60
2023-01-28T19:44:07.380Z,5.87
2023-01-28T19:46:36.169Z,5.40
2023-01-28T19:49:06.899Z,5.57
2023-01-28T19:51:35.022Z,5.63
2023-01-28T19:54:02.943Z,5.07
2023-01-28T19:56:30.824Z,5.50
2023-01-28T19:58:58.697Z,6.80
2023-01-28T20:01:30.253Z,7.00
2023-01-28T20:04:00.149Z,6.30
2023-01-28T20:06:30.265Z,6.57
2023-01-28T20:09:01.895Z,6.43
2023-01-28T20:11:29.984Z,6.10
2023-01-28T20:13:57.955Z,5.13
2023-01-28T20:16:31.344Z,6.80
2023-01-28T20:19:02.738Z,7.87
2023-01-28T20:24:01.017Z,5.93
2023-01-28T20:26:34.238Z,6.97
2023-01-28T20:29:05.974Z,6.90
2023-01-28T20:31:34.561Z,6.00
2023-01-28T20:34:02.879Z,5.80
2023-01-28T20:36:30.873Z,7.40
2023-01-28T20:39:02.698Z,7.10
2023-01-28T20:41:30.595Z,7.57
2023-01-28T20:43:58.459Z,5.97
2023-01-28T20:46:29.424Z,7.03
2023-01-28T20:48:59.399Z,5.85
2023-01-28T20:51:30.432Z,6.00
2023-01-28T20:54:00.453Z,7.03
2023-01-28T20:56:32.312Z,7.17
2023-01-28T20:59:05.884Z,7.70
2023-01-28T21:01:35.787Z,6.20
2023-01-28T21:04:05.305Z,6.73
2023-01-28T21:06:33.362Z,6.30
2023-01-28T21:09:01.392Z,6.70
2023-01-28T21:11:34.907Z,8.10
2023-01-28T21:14:02.746Z,7.23
2023-01-28T21:16:32.637Z,8.00
2023-01-28T21:19:00.520Z,7.23
2023-01-28T21:21:29.336Z,6.93
2023-01-28T21:24:00.376Z,6.83
2023-01-28T21:26:28.807Z,7.40
2023-01-28T21:28:56.842Z,5.97
2023-01-28T21:31:26.559Z,7.60
2023-01-28T21:33:57.804Z,6.87
2023-01-28T21:36:26.840Z,6.15
2023-01-28T21:39:00.035Z,6.33
2023-01-28T21:41:28.205Z,6.57
2023-01-28T21:43:57.583Z,6.93
2023-01-28T21:46:28.807Z,7.00
2023-01-28T21:48:59.053Z,5.90
2023-01-28T21:51:36.393Z,8.03
2023-01-28T21:54:17.172Z,8.07
2023-01-28T21:56:47.638Z,6.70
2023-01-28T21:59:28.693Z,7.57
2023-01-28T22:01:58.563Z,7.13
2023-01-28T22:04:31.721Z,7.47
2023-01-28T22:07:00.329Z,5.60
2023-01-28T22:09:28.911Z,7.00
2023-01-28T22:11:56.898Z,7.00
2023-01-28T22:14:24.917Z,7.23
2023-01-28T22:16:53.039Z,8.13
2023-01-28T22:19:21.026Z,6.83
2023-01-28T22:21:49.127Z,8.63
2023-01-28T22:24:22.667Z,8.27
2023-01-28T22:26:51.356Z,7.17
2023-01-28T22:29:21.297Z,6.67
2023-01-28T22:31:52.832Z,8.93
2023-01-28T22:34:21.899Z,7.20
2023-01-28T22:36:50.947Z,7.10
2023-01-28T22:39:19.400Z,8.07
2023-01-28T22:41:47.664Z,8.23
2023-01-28T22:44:16.008Z,7.43
2023-01-28T22:46:43.953Z,6.77
2023-01-28T22:49:12.340Z,6.53
2023-01-28T22:51:40.276Z,6.60
2023-01-28T22:54:09.214Z,7.37
2023-01-28T22:56:37.192Z,7.70
2023-01-28T22:59:05.067Z,7.37
2023-01-28T23:01:33.538Z,7.47
2023-01-28T23:04:01.407Z,6.63
2023-01-28T23:06:29.946Z,5.53
2023-01-28T23:08:57.817Z,5.97
2023-01-28T23:11:28.160Z,7.40
2023-01-28T23:14:20.898Z,6.50
2023-01-28T23:17:07.989Z,6.97
2023-01-28T23:19:55.085Z,5.50
2023-01-28T23:22:46.751Z,6.30
2023-01-28T23:25:15.370Z,5.43
2023-01-28T23:27:43.562Z,7.07
2023-01-28T23:30:13.295Z,5.97
2023-01-28T23:32:46.874Z,8.77
2023-01-28T23:35:15.643Z,7.70
2023-01-28T23:37:43.571Z,6.53
2023-01-28T23:40:12.588Z,5.80
2023-01-28T23:42:41.104Z,6.83
2023-01-28T23:45:09.450Z,6.67
2023-01-28T23:47:37.435Z,6.30
2023-01-28T23:50:05.426Z,7.23
2023-01-28T23:52:33.514Z,5.60
2023-01-28T23:55:01.551Z,7.20
2023-01-28T23:57:29.372Z,8.27
2023-01-28T23:59:57.226Z,7.67
